createdAt,value
2018-05-23T00:04:07.848Z,6.03
2018-05-23T00:09:04.776Z,5.70
2018-05-23T00:14:00.661Z,6.43
2018-05-23T00:18:56.503Z,6.93
2018-05-23T00:23:52.364Z,5.47
2018-05-23T00:28:48.253Z,6.13
2018-05-23T00:33:44.225Z,6.07
2018-05-23T00:38:40.082Z,6.13
2018-05-23T00:43:35.970Z,6.77
2018-05-23T00:48:31.855Z,6.47
2018-05-23T00:53:27.758Z,6.50
2018-05-23T00:58:23.605Z,6.13
2018-05-23T01:03:19.539Z,6.40
2018-05-23T01:08:15.408Z,7.20
2018-05-23T01:13:11.309Z,7.47
2018-05-23T01:18:07.199Z,6.47
2018-05-23T01:23:03.073Z,6.90
2018-05-23T01:27:58.954Z,6.87
2018-05-23T01:32:54.865Z,7.37
2018-05-23T01:37:50.717Z,6.70
2018-05-23T01:42:46.637Z,6.77
2018-05-23T01:47:42.563Z,7.10
2018-05-23T01:52:38.410Z,7.40
2018-05-23T01:57:34.281Z,7.30
2018-05-23T02:02:30.233Z,7.80
2018-05-23T02:07:26.114Z,6.90
2018-05-23T02:12:22.010Z,7.70
2018-05-23T02:17:17.900Z,7.90
2018-05-23T02:22:13.783Z,7.40
2018-05-23T02:27:09.689Z,7.97
2018-05-23T02:32:05.592Z,8.23
2018-05-23T02:37:01.468Z,7.53
2018-05-23T02:41:57.348Z,8.23
2018-05-23T02:46:53.263Z,8.07
2018-05-23T02:51:49.167Z,8.20
2018-05-23T02:56:45.085Z,8.30
2018-05-23T03:01:40.957Z,7.87
2018-05-23T03:06:36.811Z,8.10
2018-05-23T03:11:32.711Z,7.83
2018-05-23T03:16:28.571Z,8.17
2018-05-23T03:21:24.489Z,8.17
2018-05-23T03:26:20.339Z,8.73
2018-05-23T03:31:16.177Z,8.17
2018-05-23T03:36:12.039Z,9.23
2018-05-23T03:41:07.951Z,8.60
2018-05-23T03:46:03.850Z,8.77
2018-05-23T03:50:59.751Z,9.33
2018-05-23T03:55:55.651Z,8.90
2018-05-23T04:00:57.786Z,9.03
2018-05-23T04:05:59.635Z,8.70
2018-05-23T04:10:55.497Z,9.13
2018-05-23T04:15:51.361Z,8.30
2018-05-23T04:20:47.241Z,9.10
2018-05-23T04:25:43.140Z,8.13
2018-05-23T04:30:39.014Z,8.80
2018-05-23T04:35:34.883Z,8.53
2018-05-23T04:40:30.756Z,8.80
2018-05-23T04:45:26.635Z,8.60
2018-05-23T04:50:22.535Z,8.50
2018-05-23T04:55:18.406Z,9.10
2018-05-23T05:00:14.315Z,9.90
2018-05-23T05:05:10.163Z,9.27
2018-05-23T05:10:06.139Z,11.07
2018-05-23T05:15:01.962Z,10.93
2018-05-23T05:19:57.851Z,10.73
2018-05-23T05:24:53.809Z,10.80
2018-05-23T05:29:49.658Z,10.67
2018-05-23T05:34:45.547Z,10.47
2018-05-23T05:39:41.431Z,10.73
2018-05-23T05:44:37.302Z,11.43
2018-05-23T05:49:33.187Z,12.07
2018-05-23T05:54:29.044Z,11.23
2018-05-23T05:59:24.930Z,11.57
2018-05-23T06:04:20.818Z,12.20
2018-05-23T06:09:16.667Z,14.20
2018-05-23T06:14:12.533Z,13.73
2018-05-23T06:19:08.412Z,13.17
2018-05-23T06:24:04.296Z,14.23
2018-05-23T06:29:00.140Z,13.97
2018-05-23T06:33:56.042Z,15.03
2018-05-23T06:38:51.899Z,13.70
2018-05-23T06:43:47.781Z,13.60
2018-05-23T06:48:43.658Z,14.13
2018-05-23T06:53:39.495Z,12.87
2018-05-23T06:58:35.347Z,13.40
2018-05-23T07:03:31.260Z,12.55
2018-05-23T07:08:27.171Z,13.25
2018-05-23T07:13:23.009Z,13.20
2018-05-23T07:18:18.887Z,13.32
2018-05-23T07:23:14.783Z,12.65
2018-05-23T07:28:10.665Z,12.75
2018-05-23T07:33:06.567Z,13.50
2018-05-23T07:38:02.446Z,12.32
2018-05-23T07:42:58.315Z,12.00
2018-05-23T07:47:54.220Z,11.77
2018-05-23T07:52:50.095Z,12.32
2018-05-23T07:57:45.963Z,12.60
2018-05-23T08:02:41.848Z,11.50
2018-05-23T08:07:37.731Z,11.98
2018-05-23T08:12:33.636Z,11.52
2018-05-23T08:17:29.548Z,11.00
2018-05-23T08:22:25.455Z,12.37
2018-05-23T08:27:21.333Z,10.07
2018-05-23T08:32:17.200Z,10.35
2018-05-23T08:37:13.101Z,9.85
2018-05-23T08:42:08.950Z,10.00
2018-05-23T08:47:04.848Z,9.32
2018-05-23T08:52:00.707Z,8.85
2018-05-23T08:56:56.620Z,8.95
2018-05-23T09:01:52.531Z,8.63
2018-05-23T09:06:48.440Z,9.40
2018-05-23T09:11:44.346Z,8.02
2018-05-23T09:16:41.191Z,8.77
2018-05-23T09:21:37.130Z,7.70
2018-05-23T09:26:33.067Z,9.52
2018-05-23T09:31:28.955Z,7.75
2018-05-23T09:36:24.823Z,7.50
2018-05-23T09:41:20.712Z,8.25
2018-05-23T09:46:16.629Z,8.50
2018-05-23T09:51:12.512Z,8.20
2018-05-23T09:56:08.385Z,7.87
2018-05-23T10:01:04.273Z,7.65
2018-05-23T10:06:00.135Z,6.93
2018-05-23T10:10:56.018Z,6.50
2018-05-23T10:15:51.941Z,6.62
2018-05-23T10:20:47.796Z,7.20
2018-05-23T10:25:43.690Z,7.43
2018-05-23T10:30:39.559Z,7.87
2018-05-23T10:35:35.423Z,8.23
2018-05-23T10:40:31.299Z,8.40
2018-05-23T10:45:27.211Z,8.27
2018-05-23T10:50:23.085Z,6.82
2018-05-23T10:55:18.977Z,7.15
2018-05-23T11:00:14.924Z,7.90
2018-05-23T11:05:10.795Z,7.57
2018-05-23T11:10:06.677Z,7.70
2018-05-23T11:15:02.695Z,7.50
2018-05-23T11:19:58.491Z,7.43
2018-05-23T11:24:54.394Z,6.75
2018-05-23T11:29:50.316Z,6.55
2018-05-23T11:34:46.158Z,6.40
2018-05-23T11:39:42.007Z,6.03
2018-05-23T11:44:37.867Z,6.00
2018-05-23T11:49:33.759Z,6.15
2018-05-23T11:54:29.646Z,6.07
2018-05-23T11:59:25.579Z,6.05
2018-05-23T12:04:21.494Z,6.18
2018-05-23T12:09:17.375Z,6.15
2018-05-23T12:14:13.269Z,5.90
2018-05-23T12:19:09.149Z,5.62
2018-05-23T12:24:05.032Z,6.82
2018-05-23T12:29:00.869Z,6.37
2018-05-23T12:33:56.774Z,7.30
2018-05-23T12:38:52.654Z,7.07
2018-05-23T12:43:48.532Z,7.53
2018-05-23T12:48:44.514Z,9.55
2018-05-23T12:53:40.502Z,9.30
2018-05-23T12:58:36.387Z,9.23
2018-05-23T13:03:32.287Z,9.25
2018-05-23T13:08:28.165Z,8.70
2018-05-23T13:13:24.047Z,9.70
2018-05-23T13:18:19.907Z,9.52
2018-05-23T13:23:15.774Z,9.73
2018-05-23T13:28:11.633Z,9.25
2018-05-23T13:33:07.551Z,8.82
2018-05-23T13:38:03.451Z,10.05
2018-05-23T13:42:59.346Z,11.00
2018-05-23T13:47:55.236Z,10.98
2018-05-23T13:52:51.139Z,11.32
2018-05-23T13:57:47.025Z,10.25
2018-05-23T14:02:42.922Z,10.35
2018-05-23T14:07:38.838Z,12.23
2018-05-23T14:12:34.717Z,12.57
2018-05-23T14:17:30.594Z,11.35
2018-05-23T14:22:26.489Z,10.68
2018-05-23T14:27:22.379Z,8.77
2018-05-23T14:32:18.278Z,8.75
2018-05-23T14:37:14.150Z,9.05
2018-05-23T14:42:10.018Z,9.45
2018-05-23T14:47:05.912Z,8.93
2018-05-23T14:52:01.785Z,8.30
2018-05-23T14:56:57.824Z,8.27
2018-05-23T15:01:53.711Z,8.23
2018-05-23T15:06:49.629Z,8.82
2018-05-23T15:11:45.520Z,8.93
2018-05-23T15:16:41.414Z,9.00
2018-05-23T15:21:37.275Z,9.32
2018-05-23T15:26:33.146Z,10.57
2018-05-23T15:31:29.056Z,10.30
2018-05-23T15:36:24.982Z,9.35
2018-05-23T15:41:20.873Z,9.93
2018-05-23T15:46:16.769Z,10.40
2018-05-23T15:51:12.670Z,11.98
2018-05-23T15:56:08.580Z,13.70
2018-05-23T16:01:04.520Z,13.23
2018-05-23T16:06:00.404Z,9.10
2018-05-23T16:10:56.299Z,8.20
2018-05-23T16:15:52.189Z,7.90
2018-05-23T16:20:48.110Z,7.82
2018-05-23T16:25:43.968Z,8.35
2018-05-23T16:30:39.863Z,9.63
2018-05-23T16:35:35.763Z,9.30
2018-05-23T16:40:31.674Z,8.93
2018-05-23T16:45:27.559Z,9.00
2018-05-23T16:50:23.457Z,8.63
2018-05-23T16:55:19.333Z,9.13
2018-05-23T17:00:15.214Z,9.88
2018-05-23T17:05:11.166Z,9.10
2018-05-23T17:10:07.091Z,9.20
2018-05-23T17:15:02.957Z,9.50
2018-05-23T17:19:58.829Z,9.07
2018-05-23T17:24:54.712Z,9.32
2018-05-23T17:29:50.589Z,9.60
2018-05-23T17:34:46.465Z,9.32
2018-05-23T17:39:42.343Z,9.25
2018-05-23T17:44:38.214Z,9.80
2018-05-23T17:49:34.144Z,9.50
2018-05-23T17:54:30.050Z,10.48
2018-05-23T17:59:25.957Z,10.57
2018-05-23T18:04:21.840Z,10.32
2018-05-23T18:09:17.761Z,10.55
2018-05-23T18:14:13.606Z,9.88
2018-05-23T18:19:09.487Z,10.20
2018-05-23T18:24:06.253Z,10.63
2018-05-23T18:29:02.156Z,9.83
2018-05-23T18:33:58.004Z,10.90
2018-05-23T18:38:53.855Z,10.80
2018-05-23T18:43:49.744Z,11.82
2018-05-23T18:48:45.621Z,11.33
2018-05-23T18:53:41.524Z,11.50
2018-05-23T18:58:37.422Z,11.00
2018-05-23T19:03:33.280Z,11.70
2018-05-23T19:08:29.144Z,12.10
2018-05-23T19:13:25.041Z,12.73
2018-05-23T19:18:20.932Z,12.90
2018-05-23T19:23:16.824Z,12.47
2018-05-23T19:28:12.740Z,12.80
2018-05-23T19:33:08.628Z,12.80
2018-05-23T19:38:04.555Z,12.87
2018-05-23T19:43:00.446Z,12.50
2018-05-23T19:47:56.324Z,12.50
2018-05-23T19:52:52.305Z,11.93
2018-05-23T19:57:48.177Z,13.10
2018-05-23T20:02:44.099Z,13.47
2018-05-23T20:07:39.975Z,13.10
2018-05-23T20:12:35.869Z,14.03
2018-05-23T20:17:31.772Z,13.77
2018-05-23T20:22:27.641Z,12.43
2018-05-23T20:27:23.553Z,14.57
2018-05-23T20:32:19.418Z,14.80
2018-05-23T20:37:15.267Z,15.30
2018-05-23T20:42:11.156Z,15.07
2018-05-23T20:47:07.029Z,15.27
2018-05-23T20:52:02.885Z,14.30
2018-05-23T20:56:58.768Z,15.97
2018-05-23T21:01:54.668Z,15.97
2018-05-23T21:06:50.517Z,15.87
2018-05-23T21:11:46.379Z,15.33
2018-05-23T21:16:42.248Z,15.63
2018-05-23T21:21:38.153Z,16.10
2018-05-23T21:26:34.065Z,14.90
2018-05-23T21:31:29.953Z,17.33
2018-05-23T21:36:25.857Z,15.97
2018-05-23T21:41:21.733Z,16.17
2018-05-23T21:46:17.648Z,16.27
2018-05-23T21:51:13.544Z,17.93
2018-05-23T21:56:09.428Z,18.00
2018-05-23T22:01:05.331Z,18.23
2018-05-23T22:06:01.231Z,17.37
2018-05-23T22:10:57.085Z,16.70
2018-05-23T22:15:52.995Z,16.63
2018-05-23T22:20:48.845Z,16.00
2018-05-23T22:25:44.750Z,16.73
2018-05-23T22:30:40.710Z,16.57
2018-05-23T22:35:36.538Z,15.83
2018-05-23T22:40:32.442Z,16.60
2018-05-23T22:45:28.312Z,18.87
2018-05-23T22:50:24.175Z,18.47
2018-05-23T22:55:20.019Z,17.20
2018-05-23T23:00:15.996Z,16.97
2018-05-23T23:05:11.866Z,16.57
2018-05-23T23:10:07.795Z,16.70
2018-05-23T23:15:03.707Z,17.60
2018-05-23T23:19:59.567Z,17.03
2018-05-23T23:24:55.421Z,17.33
2018-05-23T23:29:51.250Z,17.33
2018-05-23T23:34:47.095Z,18.67
2018-05-23T23:39:42.985Z,18.00
2018-05-23T23:44:38.844Z,18.70
2018-05-23T23:49:34.746Z,19.73
2018-05-23T23:54:30.651Z,18.60
2018-05-23T23:59:26.571Z,18.47
